sensor_id;sensor_type;location;lat;lon;timestamp;P1;durP1;ratioP1;P2;durP2;ratioP2
11911;SDS011;6016;41.928;25.556;2023-04-25T00:01:22;8.02;;;5.47;;
11911;SDS011;6016;41.928;25.556;2023-04-25T00:03:49;8.85;;;6.05;;
11911;SDS011;6016;41.928;25.556;2023-04-25T00:06:17;11.07;;;6.03;;
11911;SDS011;6016;41.928;25.556;2023-04-25T00:08:44;9.18;;;6.47;;
11911;SDS011;6016;41.928;25.556;2023-04-25T00:11:11;9.68;;;6.07;;
11911;SDS011;6016;41.928;25.556;2023-04-25T00:13:38;8.77;;;5.85;;
11911;SDS011;6016;41.928;25.556;2023-04-25T00:16:06;11.40;;;6.78;;
11911;SDS011;6016;41.928;25.556;2023-04-25T00:18:33;8.68;;;6.40;;
11911;SDS011;6016;41.928;25.556;2023-04-25T00:21:00;11.30;;;6.10;;
11911;SDS011;6016;41.928;25.556;2023-04-25T00:23:29;9.88;;;6.38;;
11911;SDS011;6016;41.928;25.556;2023-04-25T00:25:55;9.30;;;6.60;;
11911;SDS011;6016;41.928;25.556;2023-04-25T00:28:22;11.35;;;6.30;;
11911;SDS011;6016;41.928;25.556;2023-04-25T00:30:49;9.18;;;6.28;;
11911;SDS011;6016;41.928;25.556;2023-04-25T00:33:16;8.50;;;6.05;;
11911;SDS011;6016;41.928;25.556;2023-04-25T00:35:43;10.10;;;6.45;;
11911;SDS011;6016;41.928;25.556;2023-04-25T00:38:10;9.07;;;6.03;;
11911;SDS011;6016;41.928;25.556;2023-04-25T00:40:38;8.77;;;5.97;;
11911;SDS011;6016;41.928;25.556;2023-04-25T00:43:05;9.40;;;6.57;;
11911;SDS011;6016;41.928;25.556;2023-04-25T00:45:32;10.73;;;6.70;;
11911;SDS011;6016;41.928;25.556;2023-04-25T00:48:04;9.65;;;6.50;;
11911;SDS011;6016;41.928;25.556;2023-04-25T00:50:32;8.00;;;6.30;;
11911;SDS011;6016;41.928;25.556;2023-04-25T00:52:59;10.15;;;6.25;;
11911;SDS011;6016;41.928;25.556;2023-04-25T00:55:27;8.40;;;6.15;;
11911;SDS011;6016;41.928;25.556;2023-04-25T00:57:55;9.38;;;6.03;;
11911;SDS011;6016;41.928;25.556;2023-04-25T01:00:22;10.85;;;6.78;;
11911;SDS011;6016;41.928;25.556;2023-04-25T01:02:50;9.55;;;6.28;;
11911;SDS011;6016;41.928;25.556;2023-04-25T01:05:17;9.73;;;6.70;;
11911;SDS011;6016;41.928;25.556;2023-04-25T01:07:44;11.07;;;7.00;;
11911;SDS011;6016;41.928;25.556;2023-04-25T01:10:12;13.23;;;6.70;;
11911;SDS011;6016;41.928;25.556;2023-04-25T01:12:39;9.25;;;6.53;;
11911;SDS011;6016;41.928;25.556;2023-04-25T01:15:08;9.77;;;6.45;;
11911;SDS011;6016;41.928;25.556;2023-04-25T01:17:35;10.23;;;6.68;;
11911;SDS011;6016;41.928;25.556;2023-04-25T01:20:03;11.00;;;7.10;;
11911;SDS011;6016;41.928;25.556;2023-04-25T01:22:33;10.77;;;7.20;;
11911;SDS011;6016;41.928;25.556;2023-04-25T01:25:00;9.43;;;6.47;;
11911;SDS011;6016;41.928;25.556;2023-04-25T01:27:28;13.10;;;6.63;;
11911;SDS011;6016;41.928;25.556;2023-04-25T01:29:55;9.57;;;7.22;;
11911;SDS011;6016;41.928;25.556;2023-04-25T01:32:23;9.95;;;6.60;;
11911;SDS011;6016;41.928;25.556;2023-04-25T01:34:50;7.90;;;6.22;;
11911;SDS011;6016;41.928;25.556;2023-04-25T01:37:17;10.60;;;6.03;;
11911;SDS011;6016;41.928;25.556;2023-04-25T01:39:45;11.60;;;6.47;;
11911;SDS011;6016;41.928;25.556;2023-04-25T01:42:13;9.43;;;5.97;;
11911;SDS011;6016;41.928;25.556;2023-04-25T01:44:40;10.95;;;6.78;;
11911;SDS011;6016;41.928;25.556;2023-04-25T01:47:07;8.38;;;6.07;;
11911;SDS011;6016;41.928;25.556;2023-04-25T01:49:34;9.38;;;6.03;;
11911;SDS011;6016;41.928;25.556;2023-04-25T01:52:00;8.73;;;6.00;;
11911;SDS011;6016;41.928;25.556;2023-04-25T01:54:27;9.77;;;5.93;;
11911;SDS011;6016;41.928;25.556;2023-04-25T01:56:56;7.78;;;6.18;;
11911;SDS011;6016;41.928;25.556;2023-04-25T01:59:23;8.32;;;5.80;;
11911;SDS011;6016;41.928;25.556;2023-04-25T02:01:50;7.57;;;5.72;;
11911;SDS011;6016;41.928;25.556;2023-04-25T02:04:17;6.13;;;5.25;;
11911;SDS011;6016;41.928;25.556;2023-04-25T02:06:44;18.15;;;5.60;;
11911;SDS011;6016;41.928;25.556;2023-04-25T02:09:10;8.10;;;5.03;;
11911;SDS011;6016;41.928;25.556;2023-04-25T02:11:37;8.45;;;4.82;;
11911;SDS011;6016;41.928;25.556;2023-04-25T02:14:06;6.88;;;4.68;;
11911;SDS011;6016;41.928;25.556;2023-04-25T02:16:32;8.43;;;4.80;;
11911;SDS011;6016;41.928;25.556;2023-04-25T02:19:00;7.63;;;4.88;;
11911;SDS011;6016;41.928;25.556;2023-04-25T02:21:27;7.35;;;4.32;;
11911;SDS011;6016;41.928;25.556;2023-04-25T02:23:55;7.15;;;4.68;;
11911;SDS011;6016;41.928;25.556;2023-04-25T02:26:22;7.57;;;4.35;;
11911;SDS011;6016;41.928;25.556;2023-04-25T02:28:50;6.47;;;4.30;;
11911;SDS011;6016;41.928;25.556;2023-04-25T02:31:18;6.13;;;4.68;;
11911;SDS011;6016;41.928;25.556;2023-04-25T02:33:45;9.40;;;4.55;;
11911;SDS011;6016;41.928;25.556;2023-04-25T02:36:12;6.40;;;4.47;;
11911;SDS011;6016;41.928;25.556;2023-04-25T02:38:40;7.88;;;4.40;;
11911;SDS011;6016;41.928;25.556;2023-04-25T02:41:06;7.60;;;4.10;;
11911;SDS011;6016;41.928;25.556;2023-04-25T02:43:33;7.70;;;4.00;;
11911;SDS011;6016;41.928;25.556;2023-04-25T02:46:00;6.43;;;3.97;;
11911;SDS011;6016;41.928;25.556;2023-04-25T02:48:28;8.13;;;4.38;;
11911;SDS011;6016;41.928;25.556;2023-04-25T02:50:55;7.03;;;4.07;;
11911;SDS011;6016;41.928;25.556;2023-04-25T02:53:22;6.50;;;4.22;;
11911;SDS011;6016;41.928;25.556;2023-04-25T02:55:49;5.80;;;3.65;;
11911;SDS011;6016;41.928;25.556;2023-04-25T02:58:17;8.65;;;4.30;;
11911;SDS011;6016;41.928;25.556;2023-04-25T03:00:44;5.03;;;4.05;;
11911;SDS011;6016;41.928;25.556;2023-04-25T03:03:11;6.93;;;4.22;;
11911;SDS011;6016;41.928;25.556;2023-04-25T03:05:39;7.32;;;4.15;;
11911;SDS011;6016;41.928;25.556;2023-04-25T03:08:06;6.68;;;4.10;;
11911;SDS011;6016;41.928;25.556;2023-04-25T03:10:33;6.00;;;4.05;;
11911;SDS011;6016;41.928;25.556;2023-04-25T03:12:59;7.35;;;4.97;;
11911;SDS011;6016;41.928;25.556;2023-04-25T03:15:26;5.22;;;4.00;;
11911;SDS011;6016;41.928;25.556;2023-04-25T03:17:53;7.13;;;4.43;;
11911;SDS011;6016;41.928;25.556;2023-04-25T03:20:20;7.15;;;4.20;;
11911;SDS011;6016;41.928;25.556;2023-04-25T03:22:48;6.45;;;4.30;;
11911;SDS011;6016;41.928;25.556;2023-04-25T03:25:15;6.70;;;4.18;;
11911;SDS011;6016;41.928;25.556;2023-04-25T03:27:42;6.72;;;4.15;;
11911;SDS011;6016;41.928;25.556;2023-04-25T03:30:09;8.15;;;4.28;;
11911;SDS011;6016;41.928;25.556;2023-04-25T03:32:36;7.35;;;4.13;;
11911;SDS011;6016;41.928;25.556;2023-04-25T03:35:04;10.85;;;4.80;;
11911;SDS011;6016;41.928;25.556;2023-04-25T03:37:31;8.02;;;4.47;;
11911;SDS011;6016;41.928;25.556;2023-04-25T03:39:59;8.60;;;4.68;;
11911;SDS011;6016;41.928;25.556;2023-04-25T03:42:26;6.95;;;5.03;;
11911;SDS011;6016;41.928;25.556;2023-04-25T03:44:53;7.70;;;4.90;;
11911;SDS011;6016;41.928;25.556;2023-04-25T03:47:20;6.57;;;4.65;;
11911;SDS011;6016;41.928;25.556;2023-04-25T03:49:46;8.30;;;4.65;;
11911;SDS011;6016;41.928;25.556;2023-04-25T03:52:14;6.95;;;5.07;;
11911;SDS011;6016;41.928;25.556;2023-04-25T03:54:41;9.77;;;5.13;;
11911;SDS011;6016;41.928;25.556;2023-04-25T03:57:09;7.57;;;4.68;;
11911;SDS011;6016;41.928;25.556;2023-04-25T03:59:36;8.80;;;5.18;;
11911;SDS011;6016;41.928;25.556;2023-04-25T04:02:03;6.70;;;4.97;;
11911;SDS011;6016;41.928;25.556;2023-04-25T04:04:30;11.23;;;5.20;;
11911;SDS011;6016;41.928;25.556;2023-04-25T04:06:56;8.10;;;5.28;;
11911;SDS011;6016;41.928;25.556;2023-04-25T04:09:23;14.32;;;6.55;;
11911;SDS011;6016;41.928;25.556;2023-04-25T04:11:50;10.43;;;5.53;;
11911;SDS011;6016;41.928;25.556;2023-04-25T04:14:19;20.00;;;10.02;;
11911;SDS011;6016;41.928;25.556;2023-04-25T04:16:46;10.55;;;6.82;;
11911;SDS011;6016;41.928;25.556;2023-04-25T04:19:12;11.10;;;6.68;;
11911;SDS011;6016;41.928;25.556;2023-04-25T04:21:40;10.05;;;7.05;;
11911;SDS011;6016;41.928;25.556;2023-04-25T04:24:07;9.23;;;6.05;;
11911;SDS011;6016;41.928;25.556;2023-04-25T04:26:35;13.60;;;6.07;;
11911;SDS011;6016;41.928;25.556;2023-04-25T04:29:03;13.50;;;6.85;;
11911;SDS011;6016;41.928;25.556;2023-04-25T04:31:32;12.77;;;8.27;;
11911;SDS011;6016;41.928;25.556;2023-04-25T04:33:58;13.45;;;8.40;;
11911;SDS011;6016;41.928;25.556;2023-04-25T04:36:27;10.00;;;5.47;;
11911;SDS011;6016;41.928;25.556;2023-04-25T04:38:53;12.25;;;5.82;;
11911;SDS011;6016;41.928;25.556;2023-04-25T04:41:21;13.10;;;6.53;;
11911;SDS011;6016;41.928;25.556;2023-04-25T04:43:48;11.35;;;6.60;;
11911;SDS011;6016;41.928;25.556;2023-04-25T04:46:15;12.23;;;6.43;;
11911;SDS011;6016;41.928;25.556;2023-04-25T04:48:44;9.25;;;5.95;;
11911;SDS011;6016;41.928;25.556;2023-04-25T04:51:11;9.63;;;6.15;;
11911;SDS011;6016;41.928;25.556;2023-04-25T04:53:38;7.97;;;4.95;;
11911;SDS011;6016;41.928;25.556;2023-04-25T04:56:05;11.60;;;5.68;;
11911;SDS011;6016;41.928;25.556;2023-04-25T04:58:32;8.32;;;5.20;;
11911;SDS011;6016;41.928;25.556;2023-04-25T05:01:00;8.68;;;4.47;;
11911;SDS011;6016;41.928;25.556;2023-04-25T05:03:27;6.75;;;4.63;;
11911;SDS011;6016;41.928;25.556;2023-04-25T05:05:55;10.35;;;6.80;;
11911;SDS011;6016;41.928;25.556;2023-04-25T05:08:22;8.18;;;5.53;;
11911;SDS011;6016;41.928;25.556;2023-04-25T05:10:49;9.15;;;7.32;;
11911;SDS011;6016;41.928;25.556;2023-04-25T05:13:16;11.80;;;5.57;;
11911;SDS011;6016;41.928;25.556;2023-04-25T05:15:43;8.85;;;5.80;;
11911;SDS011;6016;41.928;25.556;2023-04-25T05:18:09;8.63;;;6.18;;
11911;SDS011;6016;41.928;25.556;2023-04-25T05:20:36;11.00;;;5.88;;
11911;SDS011;6016;41.928;25.556;2023-04-25T05:23:04;11.32;;;7.10;;
11911;SDS011;6016;41.928;25.556;2023-04-25T05:25:31;9.48;;;6.85;;
11911;SDS011;6016;41.928;25.556;2023-04-25T05:27:58;9.38;;;6.55;;
11911;SDS011;6016;41.928;25.556;2023-04-25T05:30:25;9.55;;;6.68;;
11911;SDS011;6016;41.928;25.556;2023-04-25T05:32:52;9.30;;;6.97;;
11911;SDS011;6016;41.928;25.556;2023-04-25T05:35:18;9.82;;;6.70;;
11911;SDS011;6016;41.928;25.556;2023-04-25T05:37:45;10.27;;;6.55;;
11911;SDS011;6016;41.928;25.556;2023-04-25T05:40:13;9.88;;;6.82;;
11911;SDS011;6016;41.928;25.556;2023-04-25T05:42:40;9.07;;;6.20;;
11911;SDS011;6016;41.928;25.556;2023-04-25T05:45:07;13.43;;;6.32;;
11911;SDS011;6016;41.928;25.556;2023-04-25T05:47:35;11.23;;;6.65;;
11911;SDS011;6016;41.928;25.556;2023-04-25T05:50:01;10.10;;;6.75;;
11911;SDS011;6016;41.928;25.556;2023-04-25T05:52:28;9.20;;;5.70;;
11911;SDS011;6016;41.928;25.556;2023-04-25T05:54:55;13.18;;;5.63;;
11911;SDS011;6016;41.928;25.556;2023-04-25T05:57:24;9.57;;;5.85;;
11911;SDS011;6016;41.928;25.556;2023-04-25T05:59:52;10.68;;;6.00;;
11911;SDS011;6016;41.928;25.556;2023-04-25T06:02:19;7.75;;;5.70;;
11911;SDS011;6016;41.928;25.556;2023-04-25T06:04:47;8.18;;;5.43;;
11911;SDS011;6016;41.928;25.556;2023-04-25T06:07:15;9.85;;;4.88;;
11911;SDS011;6016;41.928;25.556;2023-04-25T06:09:42;8.45;;;5.80;;
11911;SDS011;6016;41.928;25.556;2023-04-25T06:12:09;10.48;;;6.53;;
11911;SDS011;6016;41.928;25.556;2023-04-25T06:14:37;7.65;;;5.30;;
11911;SDS011;6016;41.928;25.556;2023-04-25T06:17:04;8.32;;;4.85;;
11911;SDS011;6016;41.928;25.556;2023-04-25T06:19:33;6.70;;;4.70;;
11911;SDS011;6016;41.928;25.556;2023-04-25T06:22:00;6.82;;;4.70;;
11911;SDS011;6016;41.928;25.556;2023-04-25T06:24:27;12.95;;;5.20;;
11911;SDS011;6016;41.928;25.556;2023-04-25T06:26:54;7.88;;;4.68;;
11911;SDS011;6016;41.928;25.556;2023-04-25T06:29:21;7.57;;;4.90;;
11911;SDS011;6016;41.928;25.556;2023-04-25T06:31:49;9.65;;;4.90;;
11911;SDS011;6016;41.928;25.556;2023-04-25T06:34:16;6.40;;;4.35;;
11911;SDS011;6016;41.928;25.556;2023-04-25T06:36:43;8.23;;;4.57;;
11911;SDS011;6016;41.928;25.556;2023-04-25T06:39:10;7.35;;;4.15;;
11911;SDS011;6016;41.928;25.556;2023-04-25T06:41:37;7.03;;;4.03;;
11911;SDS011;6016;41.928;25.556;2023-04-25T06:44:04;7.55;;;4.40;;
11911;SDS011;6016;41.928;25.556;2023-04-25T06:46:32;6.13;;;4.22;;
11911;SDS011;6016;41.928;25.556;2023-04-25T06:49:00;8.70;;;4.72;;
11911;SDS011;6016;41.928;25.556;2023-04-25T06:51:27;5.78;;;4.00;;
11911;SDS011;6016;41.928;25.556;2023-04-25T06:53:55;5.70;;;4.03;;
11911;SDS011;6016;41.928;25.556;2023-04-25T06:56:22;7.85;;;4.32;;
11911;SDS011;6016;41.928;25.556;2023-04-25T06:58:49;5.38;;;4.15;;
11911;SDS011;6016;41.928;25.556;2023-04-25T07:01:16;7.05;;;4.40;;
11911;SDS011;6016;41.928;25.556;2023-04-25T07:03:43;6.00;;;4.20;;
11911;SDS011;6016;41.928;25.556;2023-04-25T07:06:11;11.52;;;7.40;;
11911;SDS011;6016;41.928;25.556;2023-04-25T07:08:38;9.20;;;5.63;;
11911;SDS011;6016;41.928;25.556;2023-04-25T07:11:05;18.95;;;12.73;;
11911;SDS011;6016;41.928;25.556;2023-04-25T07:13:31;7.57;;;4.88;;
11911;SDS011;6016;41.928;25.556;2023-04-25T07:15:58;8.30;;;4.28;;
11911;SDS011;6016;41.928;25.556;2023-04-25T07:18:26;6.78;;;4.40;;
11911;SDS011;6016;41.928;25.556;2023-04-25T07:20:52;12.55;;;5.20;;
11911;SDS011;6016;41.928;25.556;2023-04-25T07:23:21;8.32;;;4.70;;
11911;SDS011;6016;41.928;25.556;2023-04-25T07:25:47;7.13;;;5.03;;
11911;SDS011;6016;41.928;25.556;2023-04-25T07:28:14;10.05;;;5.07;;
11911;SDS011;6016;41.928;25.556;2023-04-25T07:30:41;9.30;;;5.15;;
11911;SDS011;6016;41.928;25.556;2023-04-25T07:33:08;6.80;;;5.35;;
11911;SDS011;6016;41.928;25.556;2023-04-25T07:35:35;9.38;;;5.47;;
11911;SDS011;6016;41.928;25.556;2023-04-25T07:38:01;9.13;;;5.38;;
11911;SDS011;6016;41.928;25.556;2023-04-25T07:40:30;6.97;;;5.20;;
11911;SDS011;6016;41.928;25.556;2023-04-25T07:42:57;7.90;;;5.43;;
11911;SDS011;6016;41.928;25.556;2023-04-25T07:45:24;7.00;;;5.13;;
11911;SDS011;6016;41.928;25.556;2023-04-25T07:47:51;8.68;;;4.90;;
11911;SDS011;6016;41.928;25.556;2023-04-25T07:50:18;7.45;;;4.60;;
11911;SDS011;6016;41.928;25.556;2023-04-25T07:52:45;11.57;;;5.30;;
11911;SDS011;6016;41.928;25.556;2023-04-25T07:55:11;9.68;;;4.80;;
11911;SDS011;6016;41.928;25.556;2023-04-25T07:57:40;7.45;;;5.25;;
11911;SDS011;6016;41.928;25.556;2023-04-25T08:00:07;7.47;;;4.43;;
11911;SDS011;6016;41.928;25.556;2023-04-25T08:02:36;8.18;;;3.95;;
11911;SDS011;6016;41.928;25.556;2023-04-25T08:05:04;8.02;;;4.63;;
11911;SDS011;6016;41.928;25.556;2023-04-25T08:07:33;5.60;;;4.03;;
11911;SDS011;6016;41.928;25.556;2023-04-25T08:10:00;5.30;;;4.20;;
11911;SDS011;6016;41.928;25.556;2023-04-25T08:12:26;7.30;;;4.60;;
11911;SDS011;6016;41.928;25.556;2023-04-25T08:14:55;5.47;;;4.15;;
11911;SDS011;6016;41.928;25.556;2023-04-25T08:17:21;8.25;;;4.53;;
11911;SDS011;6016;41.928;25.556;2023-04-25T08:19:48;6.05;;;4.38;;
11911;SDS011;6016;41.928;25.556;2023-04-25T08:22:15;8.23;;;5.15;;
11911;SDS011;6016;41.928;25.556;2023-04-25T08:24:42;6.57;;;4.22;;
11911;SDS011;6016;41.928;25.556;2023-04-25T08:27:09;6.55;;;4.05;;
11911;SDS011;6016;41.928;25.556;2023-04-25T08:29:36;7.80;;;5.00;;
11911;SDS011;6016;41.928;25.556;2023-04-25T08:32:04;6.13;;;4.32;;
11911;SDS011;6016;41.928;25.556;2023-04-25T08:34:31;7.47;;;4.13;;
11911;SDS011;6016;41.928;25.556;2023-04-25T08:36:58;5.72;;;4.15;;
11911;SDS011;6016;41.928;25.556;2023-04-25T08:39:25;7.28;;;4.43;;
11911;SDS011;6016;41.928;25.556;2023-04-25T08:41:52;5.57;;;4.40;;
11911;SDS011;6016;41.928;25.556;2023-04-25T08:44:19;8.80;;;5.10;;
11911;SDS011;6016;41.928;25.556;2023-04-25T08:46:47;3.97;;;3.15;;
11911;SDS011;6016;41.928;25.556;2023-04-25T08:49:17;3.70;;;2.80;;
11911;SDS011;6016;41.928;25.556;2023-04-25T08:51:45;5.03;;;3.30;;
11911;SDS011;6016;41.928;25.556;2023-04-25T08:54:13;6.65;;;3.63;;
11911;SDS011;6016;41.928;25.556;2023-04-25T08:56:41;4.95;;;3.30;;
11911;SDS011;6016;41.928;25.556;2023-04-25T08:59:11;5.05;;;3.85;;
11911;SDS011;6016;41.928;25.556;2023-04-25T09:01:38;4.55;;;3.58;;
11911;SDS011;6016;41.928;25.556;2023-04-25T09:04:05;3.97;;;3.00;;
11911;SDS011;6016;41.928;25.556;2023-04-25T09:06:33;3.00;;;2.70;;
11911;SDS011;6016;41.928;25.556;2023-04-25T09:09:02;4.88;;;2.97;;
11911;SDS011;6016;41.928;25.556;2023-04-25T09:11:30;3.85;;;2.63;;
11911;SDS011;6016;41.928;25.556;2023-04-25T09:14:10;4.00;;;2.90;;
11911;SDS011;6016;41.928;25.556;2023-04-25T09:19:28;4.68;;;2.90;;
11911;SDS011;6016;41.928;25.556;2023-04-25T09:21:57;4.15;;;2.83;;
11911;SDS011;6016;41.928;25.556;2023-04-25T09:24:31;5.60;;;4.43;;
11911;SDS011;6016;41.928;25.556;2023-04-25T09:27:02;4.80;;;3.70;;
11911;SDS011;6016;41.928;25.556;2023-04-25T09:29:30;5.65;;;3.40;;
11911;SDS011;6016;41.928;25.556;2023-04-25T09:32:11;4.57;;;3.38;;
11911;SDS011;6016;41.928;25.556;2023-04-25T09:34:43;5.90;;;3.10;;
11911;SDS011;6016;41.928;25.556;2023-04-25T09:37:16;5.38;;;3.05;;
11911;SDS011;6016;41.928;25.556;2023-04-25T09:39:44;5.53;;;2.92;;
11911;SDS011;6016;41.928;25.556;2023-04-25T09:42:11;8.27;;;3.38;;
11911;SDS011;6016;41.928;25.556;2023-04-25T09:44:42;7.20;;;3.28;;
11911;SDS011;6016;41.928;25.556;2023-04-25T09:47:10;5.32;;;3.13;;
11911;SDS011;6016;41.928;25.556;2023-04-25T09:49:39;3.50;;;3.10;;
11911;SDS011;6016;41.928;25.556;2023-04-25T09:52:07;4.30;;;3.20;;
11911;SDS011;6016;41.928;25.556;2023-04-25T09:54:36;3.83;;;3.15;;
11911;SDS011;6016;41.928;25.556;2023-04-25T09:57:05;4.72;;;3.13;;
11911;SDS011;6016;41.928;25.556;2023-04-25T09:59:42;4.10;;;3.22;;
11911;SDS011;6016;41.928;25.556;2023-04-25T10:02:11;2.97;;;2.67;;
11911;SDS011;6016;41.928;25.556;2023-04-25T10:04:39;3.75;;;2.58;;
11911;SDS011;6016;41.928;25.556;2023-04-25T10:07:07;3.83;;;2.50;;
11911;SDS011;6016;41.928;25.556;2023-04-25T10:09:37;3.67;;;2.47;;
11911;SDS011;6016;41.928;25.556;2023-04-25T10:12:06;3.92;;;2.35;;
11911;SDS011;6016;41.928;25.556;2023-04-25T10:14:34;5.60;;;3.35;;
11911;SDS011;6016;41.928;25.556;2023-04-25T10:17:01;9.10;;;4.40;;
11911;SDS011;6016;41.928;25.556;2023-04-25T10:19:28;6.90;;;4.60;;
11911;SDS011;6016;41.928;25.556;2023-04-25T10:21:56;13.55;;;6.90;;
11911;SDS011;6016;41.928;25.556;2023-04-25T10:24:29;9.27;;;5.22;;
11911;SDS011;6016;41.928;25.556;2023-04-25T10:26:58;4.97;;;3.28;;
11911;SDS011;6016;41.928;25.556;2023-04-25T10:29:27;13.57;;;7.30;;
11911;SDS011;6016;41.928;25.556;2023-04-25T10:31:53;6.82;;;3.70;;
11911;SDS011;6016;41.928;25.556;2023-04-25T10:34:23;6.63;;;4.05;;
11911;SDS011;6016;41.928;25.556;2023-04-25T10:36:51;9.13;;;4.18;;
11911;SDS011;6016;41.928;25.556;2023-04-25T10:39:22;11.40;;;4.43;;
11911;SDS011;6016;41.928;25.556;2023-04-25T10:41:55;7.80;;;4.70;;
11911;SDS011;6016;41.928;25.556;2023-04-25T10:44:27;6.78;;;4.80;;
11911;SDS011;6016;41.928;25.556;2023-04-25T10:46:54;7.63;;;3.80;;
11911;SDS011;6016;41.928;25.556;2023-04-25T10:49:28;8.13;;;4.10;;
11911;SDS011;6016;41.928;25.556;2023-04-25T10:54:51;9.45;;;3.90;;
11911;SDS011;6016;41.928;25.556;2023-04-25T10:57:32;3.58;;;3.00;;
11911;SDS011;6016;41.928;25.556;2023-04-25T11:00:07;4.40;;;2.80;;
11911;SDS011;6016;41.928;25.556;2023-04-25T11:02:37;3.90;;;3.22;;
11911;SDS011;6016;41.928;25.556;2023-04-25T11:05:08;5.15;;;3.50;;
11911;SDS011;6016;41.928;25.556;2023-04-25T11:07:37;6.03;;;3.58;;
11911;SDS011;6016;41.928;25.556;2023-04-25T11:10:10;3.92;;;2.50;;
11911;SDS011;6016;41.928;25.556;2023-04-25T11:12:37;4.80;;;2.67;;
11911;SDS011;6016;41.928;25.556;2023-04-25T11:15:04;4.78;;;2.75;;
11911;SDS011;6016;41.928;25.556;2023-04-25T11:17:34;3.45;;;2.50;;
11911;SDS011;6016;41.928;25.556;2023-04-25T11:20:01;6.65;;;2.50;;
11911;SDS011;6016;41.928;25.556;2023-04-25T11:22:31;3.72;;;2.42;;
11911;SDS011;6016;41.928;25.556;2023-04-25T11:24:58;5.65;;;3.38;;
11911;SDS011;6016;41.928;25.556;2023-04-25T11:27:30;4.15;;;2.85;;
11911;SDS011;6016;41.928;25.556;2023-04-25T11:29:57;5.57;;;3.05;;
11911;SDS011;6016;41.928;25.556;2023-04-25T11:32:25;6.25;;;3.40;;
11911;SDS011;6016;41.928;25.556;2023-04-25T11:34:52;11.13;;;5.07;;
11911;SDS011;6016;41.928;25.556;2023-04-25T11:37:18;7.45;;;4.10;;
11911;SDS011;6016;41.928;25.556;2023-04-25T11:39:46;3.67;;;2.28;;
11911;SDS011;6016;41.928;25.556;2023-04-25T11:42:13;6.65;;;2.72;;
11911;SDS011;6016;41.928;25.556;2023-04-25T11:44:41;2.78;;;1.90;;
11911;SDS011;6016;41.928;25.556;2023-04-25T11:47:08;2.55;;;1.98;;
11911;SDS011;6016;41.928;25.556;2023-04-25T11:49:37;2.28;;;1.80;;
11911;SDS011;6016;41.928;25.556;2023-04-25T11:52:05;2.00;;;1.70;;
11911;SDS011;6016;41.928;25.556;2023-04-25T11:54:34;1.40;;;1.10;;
11911;SDS011;6016;41.928;25.556;2023-04-25T11:57:02;0.98;;;0.75;;
11911;SDS011;6016;41.928;25.556;2023-04-25T11:59:29;1.20;;;1.02;;
11911;SDS011;6016;41.928;25.556;2023-04-25T12:01:56;2.03;;;1.40;;
11911;SDS011;6016;41.928;25.556;2023-04-25T12:04:24;1.30;;;1.20;;
11911;SDS011;6016;41.928;25.556;2023-04-25T12:06:53;1.67;;;1.30;;
11911;SDS011;6016;41.928;25.556;2023-04-25T12:09:23;1.35;;;1.25;;
11911;SDS011;6016;41.928;25.556;2023-04-25T12:11:55;1.88;;;1.40;;
11911;SDS011;6016;41.928;25.556;2023-04-25T12:14:23;1.50;;;1.17;;
11911;SDS011;6016;41.928;25.556;2023-04-25T12:16:52;2.10;;;1.70;;
11911;SDS011;6016;41.928;25.556;2023-04-25T12:19:22;3.55;;;1.88;;
11911;SDS011;6016;41.928;25.556;2023-04-25T12:21:49;2.05;;;1.02;;
11911;SDS011;6016;41.928;25.556;2023-04-25T12:24:18;1.10;;;1.00;;
11911;SDS011;6016;41.928;25.556;2023-04-25T12:26:51;1.25;;;1.15;;
11911;SDS011;6016;41.928;25.556;2023-04-25T12:29:20;1.10;;;1.00;;
11911;SDS011;6016;41.928;25.556;2023-04-25T12:31:49;1.30;;;1.10;;
11911;SDS011;6016;41.928;25.556;2023-04-25T12:34:16;1.38;;;1.15;;
11911;SDS011;6016;41.928;25.556;2023-04-25T12:36:43;1.60;;;1.50;;
11911;SDS011;6016;41.928;25.556;2023-04-25T12:39:14;2.10;;;1.60;;
11911;SDS011;6016;41.928;25.556;2023-04-25T12:41:42;1.98;;;1.30;;
11911;SDS011;6016;41.928;25.556;2023-04-25T12:44:09;1.55;;;1.45;;
11911;SDS011;6016;41.928;25.556;2023-04-25T12:46:36;2.90;;;1.48;;
11911;SDS011;6016;41.928;25.556;2023-04-25T12:49:03;1.70;;;1.60;;
11911;SDS011;6016;41.928;25.556;2023-04-25T12:51:32;1.40;;;1.30;;
11911;SDS011;6016;41.928;25.556;2023-04-25T12:54:00;1.30;;;1.20;;
11911;SDS011;6016;41.928;25.556;2023-04-25T12:56:27;1.98;;;1.30;;
11911;SDS011;6016;41.928;25.556;2023-04-25T12:58:55;1.15;;;1.05;;
11911;SDS011;6016;41.928;25.556;2023-04-25T13:01:23;1.67;;;0.82;;
11911;SDS011;6016;41.928;25.556;2023-04-25T13:03:50;1.55;;;1.17;;
11911;SDS011;6016;41.928;25.556;2023-04-25T13:06:17;1.58;;;1.00;;
11911;SDS011;6016;41.928;25.556;2023-04-25T13:08:45;1.23;;;1.13;;
11911;SDS011;6016;41.928;25.556;2023-04-25T13:11:11;1.73;;;1.40;;
11911;SDS011;6016;41.928;25.556;2023-04-25T13:13:39;1.50;;;1.27;;
11911;SDS011;6016;41.928;25.556;2023-04-25T13:16:08;1.58;;;1.30;;
11911;SDS011;6016;41.928;25.556;2023-04-25T13:18:36;2.05;;;1.60;;
11911;SDS011;6016;41.928;25.556;2023-04-25T13:21:03;2.45;;;1.65;;
11911;SDS011;6016;41.928;25.556;2023-04-25T13:23:29;2.50;;;1.85;;
11911;SDS011;6016;41.928;25.556;2023-04-25T13:25:57;2.05;;;1.60;;
11911;SDS011;6016;41.928;25.556;2023-04-25T13:28:24;2.22;;;1.60;;
11911;SDS011;6016;41.928;25.556;2023-04-25T13:30:51;3.40;;;1.70;;
11911;SDS011;6016;41.928;25.556;2023-04-25T13:33:19;1.60;;;1.50;;
11911;SDS011;6016;41.928;25.556;2023-04-25T13:35:47;3.45;;;1.90;;
11911;SDS011;6016;41.928;25.556;2023-04-25T13:38:19;1.80;;;1.70;;
11911;SDS011;6016;41.928;25.556;2023-04-25T13:40:47;1.92;;;1.42;;
11911;SDS011;6016;41.928;25.556;2023-04-25T13:43:14;2.28;;;1.50;;
11911;SDS011;6016;41.928;25.556;2023-04-25T13:45:41;1.55;;;1.45;;
11911;SDS011;6016;41.928;25.556;2023-04-25T13:48:08;2.97;;;1.60;;
11911;SDS011;6016;41.928;25.556;2023-04-25T13:50:36;1.92;;;1.55;;
11911;SDS011;6016;41.928;25.556;2023-04-25T13:53:03;2.60;;;1.80;;
11911;SDS011;6016;41.928;25.556;2023-04-25T13:55:30;3.22;;;1.70;;
11911;SDS011;6016;41.928;25.556;2023-04-25T13:57:57;2.55;;;1.65;;
11911;SDS011;6016;41.928;25.556;2023-04-25T14:00:24;2.28;;;1.73;;
11911;SDS011;6016;41.928;25.556;2023-04-25T14:02:51;2.05;;;1.80;;
11911;SDS011;6016;41.928;25.556;2023-04-25T14:05:18;4.38;;;2.75;;
11911;SDS011;6016;41.928;25.556;2023-04-25T14:07:46;3.05;;;2.33;;
11911;SDS011;6016;41.928;25.556;2023-04-25T14:10:13;2.70;;;2.30;;
11911;SDS011;6016;41.928;25.556;2023-04-25T14:12:40;3.97;;;2.50;;
11911;SDS011;6016;41.928;25.556;2023-04-25T14:15:07;2.70;;;2.20;;
11911;SDS011;6016;41.928;25.556;2023-04-25T14:17:34;3.50;;;2.15;;
11911;SDS011;6016;41.928;25.556;2023-04-25T14:20:01;4.00;;;2.33;;
11911;SDS011;6016;41.928;25.556;2023-04-25T14:22:31;4.15;;;2.10;;
11911;SDS011;6016;41.928;25.556;2023-04-25T14:24:59;6.30;;;3.25;;
11911;SDS011;6016;41.928;25.556;2023-04-25T14:27:26;3.08;;;2.30;;
11911;SDS011;6016;41.928;25.556;2023-04-25T14:29:53;4.53;;;2.40;;
11911;SDS011;6016;41.928;25.556;2023-04-25T14:32:19;3.60;;;2.25;;
11911;SDS011;6016;41.928;25.556;2023-04-25T14:34:46;2.70;;;2.20;;
11911;SDS011;6016;41.928;25.556;2023-04-25T14:37:14;4.35;;;2.67;;
11911;SDS011;6016;41.928;25.556;2023-04-25T14:39:41;4.70;;;2.53;;
11911;SDS011;6016;41.928;25.556;2023-04-25T14:42:09;3.00;;;2.22;;
11911;SDS011;6016;41.928;25.556;2023-04-25T14:44:36;3.33;;;2.33;;
11911;SDS011;6016;41.928;25.556;2023-04-25T14:47:04;3.05;;;2.10;;
11911;SDS011;6016;41.928;25.556;2023-04-25T14:49:31;3.85;;;2.50;;
11911;SDS011;6016;41.928;25.556;2023-04-25T14:51:58;5.57;;;2.33;;
11911;SDS011;6016;41.928;25.556;2023-04-25T14:54:26;3.28;;;2.60;;